createdAt,value
2023-03-11T00:00:30.915Z,1.40
2023-03-11T00:03:00.628Z,1.60
2023-03-11T00:05:35.684Z,1.23
2023-03-11T00:08:04.195Z,1.77
2023-03-11T00:10:38.352Z,1.80
2023-03-11T00:13:07.552Z,1.60
2023-03-11T00:15:34.869Z,1.30
2023-03-11T00:18:01.823Z,1.07
2023-03-11T00:20:34.929Z,1.73
2023-03-11T00:23:03.341Z,1.23
2023-03-11T00:25:32.935Z,1.37
2023-03-11T00:28:00.656Z,1.50
2023-03-11T00:30:29.055Z,1.20
2023-03-11T00:32:58.177Z,1.40
2023-03-11T00:35:30.113Z,1.30
2023-03-11T00:38:00.688Z,1.30
2023-03-11T00:40:30.462Z,1.10
2023-03-11T00:42:58.351Z,1.43
2023-03-11T00:45:26.281Z,1.80
2023-03-11T00:47:54.753Z,1.43
2023-03-11T00:50:30.305Z,1.07
2023-03-11T00:52:58.396Z,1.33
2023-03-11T00:55:32.224Z,1.33
2023-03-11T00:58:06.645Z,1.77
2023-03-11T01:00:54.049Z,1.27
2023-03-11T01:03:21.767Z,2.07
2023-03-11T01:05:49.484Z,1.20
2023-03-11T01:08:16.501Z,1.70
2023-03-11T01:10:43.448Z,1.10
2023-03-11T01:13:11.345Z,1.63
2023-03-11T01:15:38.534Z,1.10
2023-03-11T01:18:06.646Z,1.70
2023-03-11T01:20:35.653Z,1.43
2023-03-11T01:23:02.659Z,1.47
2023-03-11T01:25:30.021Z,1.10
2023-03-11T01:27:59.235Z,1.20
2023-03-11T01:30:27.893Z,1.53
2023-03-11T01:32:56.690Z,1.60
2023-03-11T01:35:26.665Z,0.80
2023-03-11T01:37:54.317Z,0.70
2023-03-11T01:40:44.710Z,0.90
2023-03-11T01:43:44.438Z,1.10
2023-03-11T01:46:40.152Z,1.20
2023-03-11T01:49:12.658Z,0.73
2023-03-11T01:51:43.429Z,0.97
2023-03-11T01:54:21.099Z,0.90
2023-03-11T01:56:49.773Z,0.60
2023-03-11T01:59:23.117Z,0.60
2023-03-11T02:02:28.968Z,0.80
2023-03-11T02:04:57.119Z,0.80
2023-03-11T02:07:24.704Z,0.77
2023-03-11T02:09:52.054Z,0.90
2023-03-11T02:12:19.701Z,0.60
2023-03-11T02:14:50.625Z,0.70
2023-03-11T02:17:17.909Z,0.80
2023-03-11T02:20:30.973Z,0.73
2023-03-11T02:23:01.367Z,1.27
2023-03-11T02:25:53.353Z,0.80
2023-03-11T02:28:22.039Z,0.73
2023-03-11T02:30:50.448Z,0.70
2023-03-11T02:33:20.016Z,0.80
2023-03-11T02:35:48.029Z,0.90
2023-03-11T02:38:15.122Z,0.80
2023-03-11T02:41:00.393Z,1.00
2023-03-11T02:43:42.187Z,0.90
2023-03-11T02:46:12.703Z,1.10
2023-03-11T02:48:40.008Z,1.10
2023-03-11T02:51:07.326Z,0.80
2023-03-11T02:53:42.299Z,1.00
2023-03-11T02:56:09.320Z,0.87
2023-03-11T02:58:36.330Z,0.87
2023-03-11T03:01:03.653Z,0.80
2023-03-11T03:03:30.743Z,1.10
2023-03-11T03:05:57.844Z,1.07
2023-03-11T03:08:24.797Z,0.77
2023-03-11T03:10:51.818Z,0.70
2023-03-11T03:13:18.871Z,1.03
2023-03-11T03:15:46.003Z,0.60
2023-03-11T03:18:13.350Z,1.00
2023-03-11T03:20:40.855Z,1.40
2023-03-11T03:23:08.296Z,0.80
2023-03-11T03:25:35.960Z,1.00
2023-03-11T03:28:07.125Z,1.00
2023-03-11T03:30:38.891Z,1.10
2023-03-11T03:33:07.281Z,1.17
2023-03-11T03:35:34.663Z,1.10
2023-03-11T03:38:09.170Z,1.00
2023-03-11T03:40:36.575Z,1.07
2023-03-11T03:43:05.950Z,1.40
2023-03-11T03:45:34.648Z,0.97
2023-03-11T03:48:02.335Z,1.07
2023-03-11T03:50:33.236Z,1.23
2023-03-11T03:53:00.278Z,1.27
2023-03-11T03:55:27.660Z,1.27
2023-03-11T03:57:55.710Z,1.20
2023-03-11T04:00:25.846Z,1.13
2023-03-11T04:02:58.711Z,1.37
2023-03-11T04:05:33.724Z,2.10
2023-03-11T04:08:00.929Z,1.20
2023-03-11T04:10:28.330Z,0.97
2023-03-11T04:12:55.595Z,1.20
2023-03-11T04:15:22.696Z,1.40
2023-03-11T04:17:49.721Z,1.53
2023-03-11T04:20:17.282Z,1.07
2023-03-11T04:22:47.384Z,1.23
2023-03-11T04:25:15.358Z,1.40
2023-03-11T04:27:46.013Z,2.20
2023-03-11T04:30:14.338Z,2.27
2023-03-11T04:32:43.627Z,2.00
2023-03-11T04:35:11.345Z,0.83
2023-03-11T04:37:38.924Z,1.20
2023-03-11T04:40:07.088Z,1.50
2023-03-11T04:42:34.904Z,1.23
2023-03-11T04:45:02.994Z,1.07
2023-03-11T04:47:31.651Z,0.87
2023-03-11T04:49:59.023Z,1.73
2023-03-11T04:52:26.322Z,1.47
2023-03-11T04:54:54.019Z,1.20
2023-03-11T04:57:21.669Z,1.80
2023-03-11T04:59:49.138Z,1.17
2023-03-11T05:02:16.302Z,1.10
2023-03-11T05:04:51.544Z,1.43
2023-03-11T05:07:18.535Z,1.10
2023-03-11T05:09:46.829Z,1.10
2023-03-11T05:12:14.306Z,1.20
2023-03-11T05:14:45.739Z,1.30
2023-03-11T05:17:14.912Z,2.67
2023-03-11T05:19:42.564Z,1.00
2023-03-11T05:22:17.833Z,1.10
2023-03-11T05:24:46.919Z,1.07
2023-03-11T05:27:17.950Z,1.10
2023-03-11T05:29:48.176Z,1.10
2023-03-11T05:32:16.389Z,0.80
2023-03-11T05:34:46.268Z,1.00
2023-03-11T05:37:15.684Z,1.50
2023-03-11T05:39:43.090Z,1.60
2023-03-11T05:42:11.881Z,1.20
2023-03-11T05:44:40.020Z,1.57
2023-03-11T05:47:07.608Z,1.60
2023-03-11T05:49:35.837Z,0.93
2023-03-11T05:52:03.263Z,0.87
2023-03-11T05:54:31.684Z,1.50
2023-03-11T05:56:59.521Z,1.13
2023-03-11T05:59:26.755Z,1.90
2023-03-11T06:01:58.521Z,1.13
2023-03-11T06:04:25.692Z,1.53
2023-03-11T06:06:52.953Z,1.67
2023-03-11T06:09:22.858Z,1.30
2023-03-11T06:11:50.919Z,1.70
2023-03-11T06:14:20.031Z,1.60
2023-03-11T06:16:49.735Z,1.60
2023-03-11T06:20:29.146Z,1.40
2023-03-11T06:22:56.983Z,1.20
2023-03-11T06:25:25.273Z,1.70
2023-03-11T06:27:54.068Z,2.13
2023-03-11T06:30:24.473Z,1.80
2023-03-11T06:33:21.056Z,2.17
2023-03-11T06:36:00.706Z,1.60
2023-03-11T06:38:27.974Z,1.83
2023-03-11T06:40:59.264Z,1.50
2023-03-11T06:43:26.259Z,1.43
2023-03-11T06:45:53.932Z,1.10
2023-03-11T06:48:21.640Z,2.60
2023-03-11T06:51:00.493Z,2.47
2023-03-11T06:53:30.563Z,2.80
2023-03-11T06:56:02.205Z,2.90
2023-03-11T06:58:32.605Z,2.70
2023-03-11T07:01:05.435Z,4.40
2023-03-11T07:03:33.042Z,1.77
2023-03-11T07:06:00.643Z,1.23
2023-03-11T07:08:31.103Z,2.20
2023-03-11T07:11:06.610Z,1.73
2023-03-11T07:13:34.846Z,1.67
2023-03-11T07:16:08.049Z,1.60
2023-03-11T07:18:36.215Z,1.73
2023-03-11T07:21:06.594Z,2.90
2023-03-11T07:23:34.619Z,2.03
2023-03-11T07:26:01.944Z,2.00
2023-03-11T07:28:29.766Z,1.40
2023-03-11T07:30:57.156Z,1.80
2023-03-11T07:33:24.604Z,1.20
2023-03-11T07:35:52.664Z,1.70
2023-03-11T07:38:20.088Z,1.47
2023-03-11T07:40:47.587Z,2.53
2023-03-11T07:43:15.193Z,2.30
2023-03-11T07:45:42.600Z,2.80
2023-03-11T07:48:09.979Z,1.90
2023-03-11T07:50:37.324Z,1.93
2023-03-11T07:53:04.626Z,1.60
2023-03-11T07:55:32.007Z,1.60
2023-03-11T07:57:59.325Z,1.43
2023-03-11T08:00:26.764Z,2.00
2023-03-11T08:02:54.086Z,2.00
2023-03-11T08:05:21.552Z,2.10
2023-03-11T08:07:48.539Z,1.73
2023-03-11T08:10:15.602Z,2.30
2023-03-11T08:12:42.589Z,2.00
2023-03-11T08:15:10.510Z,1.80
2023-03-11T08:17:37.488Z,1.83
2023-03-11T08:20:05.146Z,1.73
2023-03-11T08:22:32.123Z,1.70
2023-03-11T08:24:59.057Z,1.43
2023-03-11T08:27:29.319Z,1.70
2023-03-11T08:29:56.373Z,1.70
2023-03-11T08:32:23.387Z,1.50
2023-03-11T08:34:50.380Z,1.40
2023-03-11T08:37:17.395Z,1.50
2023-03-11T08:39:44.354Z,1.73
2023-03-11T08:42:11.523Z,2.30
2023-03-11T08:44:38.976Z,1.37
2023-03-11T08:47:06.155Z,1.70
2023-03-11T08:49:33.425Z,1.47
2023-03-11T08:52:02.146Z,1.20
2023-03-11T08:54:29.283Z,1.73
2023-03-11T08:56:56.306Z,2.27
2023-03-11T08:59:23.281Z,1.53
2023-03-11T09:01:50.267Z,1.40
2023-03-11T09:04:17.239Z,1.70
2023-03-11T09:06:45.228Z,1.50
2023-03-11T09:09:13.068Z,1.60
2023-03-11T09:11:40.524Z,1.70
2023-03-11T09:14:07.635Z,1.73
2023-03-11T09:16:34.825Z,1.63
2023-03-11T09:19:06.896Z,1.40
2023-03-11T09:21:37.670Z,1.20
2023-03-11T09:24:06.864Z,1.83
2023-03-11T09:26:33.963Z,1.57
2023-03-11T09:29:01.321Z,1.60
2023-03-11T09:31:28.399Z,2.40
2023-03-11T09:33:56.391Z,1.67
2023-03-11T09:36:23.495Z,1.10
2023-03-11T09:38:50.546Z,1.30
2023-03-11T09:41:17.511Z,1.50
2023-03-11T09:44:08.857Z,1.30
2023-03-11T09:46:38.598Z,1.60
2023-03-11T09:50:05.876Z,1.20
2023-03-11T09:52:56.582Z,1.60
2023-03-11T09:55:52.500Z,1.20
2023-03-11T09:58:56.921Z,1.03
2023-03-11T10:01:38.601Z,0.90
2023-03-11T10:04:14.518Z,1.40
2023-03-11T10:06:42.944Z,1.33
2023-03-11T10:09:24.958Z,1.10
2023-03-11T10:12:13.612Z,1.07
2023-03-11T10:15:05.947Z,1.20
2023-03-11T10:17:50.547Z,1.63
2023-03-11T10:20:21.746Z,1.30
2023-03-11T10:23:03.758Z,1.10
2023-03-11T10:25:57.437Z,1.93
2023-03-11T10:28:28.651Z,1.40
2023-03-11T10:31:04.825Z,1.67
2023-03-11T10:33:43.083Z,1.10
2023-03-11T10:36:19.355Z,1.40
2023-03-11T10:38:49.554Z,1.20
2023-03-11T10:41:51.027Z,0.73
2023-03-11T10:44:24.922Z,1.13
2023-03-11T10:46:52.253Z,1.17
2023-03-11T10:49:19.798Z,1.80
2023-03-11T10:51:50.650Z,1.50
2023-03-11T10:54:29.412Z,1.10
2023-03-11T10:57:00.793Z,0.90
2023-03-11T10:59:50.791Z,0.80
2023-03-11T11:02:58.104Z,1.30
2023-03-11T11:05:35.735Z,1.07
2023-03-11T11:08:23.178Z,1.70
2023-03-11T11:11:00.379Z,1.23
2023-03-11T11:13:35.490Z,1.00
2023-03-11T11:16:20.816Z,1.07
2023-03-11T11:19:04.101Z,1.20
2023-03-11T11:21:41.064Z,1.40
2023-03-11T11:24:29.363Z,1.60
2023-03-11T11:27:25.742Z,0.83
2023-03-11T11:30:08.796Z,1.10
2023-03-11T11:32:37.280Z,1.70
2023-03-11T11:35:16.665Z,1.50
2023-03-11T11:37:51.764Z,1.40
2023-03-11T11:40:34.572Z,2.80
2023-03-11T11:43:20.233Z,1.23
2023-03-11T11:45:57.487Z,1.63
2023-03-11T11:48:45.159Z,1.10
2023-03-11T11:51:30.436Z,1.50
2023-03-11T11:54:25.058Z,1.40
2023-03-11T11:56:52.072Z,1.50
2023-03-11T11:59:23.331Z,2.17
2023-03-11T12:02:46.374Z,2.13
2023-03-11T12:05:27.370Z,2.17
2023-03-11T12:08:26.531Z,0.93
2023-03-11T12:11:10.437Z,0.90
2023-03-11T12:14:23.089Z,1.27
2023-03-11T12:17:04.249Z,1.30
2023-03-11T12:19:49.504Z,1.23
2023-03-11T12:22:44.312Z,1.10
2023-03-11T12:25:41.956Z,1.60
2023-03-11T12:28:24.403Z,1.50
2023-03-11T12:30:56.458Z,2.17
2023-03-11T12:33:56.971Z,1.33
2023-03-11T12:36:29.282Z,1.70
2023-03-11T12:38:57.093Z,1.33
2023-03-11T12:41:39.703Z,1.10
2023-03-11T12:44:24.955Z,2.40
2023-03-11T12:46:55.453Z,1.17
2023-03-11T12:49:30.740Z,1.27
2023-03-11T12:52:11.670Z,1.27
2023-03-11T12:54:44.907Z,1.20
2023-03-11T12:57:21.065Z,1.43
2023-03-11T13:00:12.450Z,1.70
2023-03-11T13:03:12.712Z,1.20
2023-03-11T13:06:15.015Z,1.03
2023-03-11T13:08:54.826Z,1.10
2023-03-11T13:11:34.440Z,1.10
2023-03-11T13:14:30.288Z,0.90
2023-03-11T13:17:25.716Z,0.77
2023-03-11T13:19:58.056Z,1.20
2023-03-11T13:23:14.147Z,1.23
2023-03-11T13:26:17.842Z,0.90
2023-03-11T13:29:09.677Z,1.00
2023-03-11T13:32:01.264Z,1.97
2023-03-11T13:34:45.487Z,1.20
2023-03-11T13:37:34.973Z,1.23
2023-03-11T13:40:28.929Z,1.40
2023-03-11T13:43:02.845Z,1.00
2023-03-11T13:45:36.941Z,1.20
2023-03-11T13:48:28.821Z,1.37
2023-03-11T13:51:05.223Z,1.30
2023-03-11T13:53:43.829Z,2.50
2023-03-11T13:56:33.123Z,1.63
2023-03-11T13:59:33.774Z,1.93
2023-03-11T14:02:13.198Z,1.90
2023-03-11T14:04:42.434Z,0.83
2023-03-11T14:07:27.838Z,1.40
2023-03-11T14:10:19.914Z,1.30
2023-03-11T14:12:47.276Z,1.30
2023-03-11T14:15:26.422Z,4.10
2023-03-11T14:17:54.564Z,2.07
2023-03-11T14:20:25.387Z,1.30
2023-03-11T14:22:55.136Z,1.40
2023-03-11T14:25:36.324Z,1.70
2023-03-11T14:28:05.782Z,1.33
2023-03-11T14:30:34.657Z,1.10
2023-03-11T14:33:04.490Z,1.10
2023-03-11T14:35:34.039Z,0.90
2023-03-11T14:38:01.735Z,1.33
2023-03-11T14:40:34.180Z,0.93
2023-03-11T14:43:06.598Z,0.93
2023-03-11T14:45:37.354Z,1.37
2023-03-11T14:48:06.221Z,1.53
2023-03-11T14:50:38.428Z,1.73
2023-03-11T14:53:26.830Z,2.30
2023-03-11T14:55:58.527Z,1.47
2023-03-11T14:58:58.535Z,1.03
2023-03-11T15:01:41.890Z,1.47
2023-03-11T15:04:49.104Z,1.90
2023-03-11T15:07:21.047Z,1.50
2023-03-11T15:09:48.762Z,1.37
2023-03-11T15:12:45.677Z,1.70
2023-03-11T15:15:39.227Z,1.37
2023-03-11T15:18:22.983Z,5.57
2023-03-11T15:21:03.293Z,3.33
2023-03-11T15:23:30.773Z,1.47
2023-03-11T15:25:58.316Z,2.67
2023-03-11T15:28:28.998Z,1.47
2023-03-11T15:31:21.514Z,3.93
2023-03-11T15:33:49.585Z,1.63
2023-03-11T15:36:48.929Z,1.10
2023-03-11T15:39:18.989Z,1.80
2023-03-11T15:42:08.157Z,1.40
2023-03-11T15:44:53.681Z,1.43
2023-03-11T15:47:22.635Z,1.23
2023-03-11T15:49:50.888Z,1.37
2023-03-11T15:52:19.350Z,1.50
2023-03-11T15:54:54.964Z,1.20
2023-03-11T15:57:27.545Z,1.20
2023-03-11T15:59:56.110Z,1.20
2023-03-11T16:02:26.580Z,1.20
2023-03-11T16:04:55.069Z,1.60
2023-03-11T16:07:38.056Z,1.00
2023-03-11T16:10:07.227Z,1.17
2023-03-11T16:12:34.700Z,1.13
2023-03-11T16:15:02.088Z,1.20
2023-03-11T16:17:42.941Z,1.47
2023-03-11T16:20:14.459Z,1.33
2023-03-11T16:22:41.907Z,1.27
2023-03-11T16:25:18.936Z,1.53
2023-03-11T16:27:46.268Z,1.07
2023-03-11T16:30:16.153Z,1.80
2023-03-11T16:32:43.702Z,1.20
2023-03-11T16:35:11.886Z,0.97
2023-03-11T16:37:42.244Z,1.70
2023-03-11T16:40:14.613Z,2.30
2023-03-11T16:42:43.583Z,2.03
2023-03-11T16:45:15.583Z,2.10
2023-03-11T16:47:43.109Z,1.53
2023-03-11T16:50:11.965Z,1.97
2023-03-11T16:52:39.521Z,2.13
2023-03-11T16:55:07.711Z,2.93
2023-03-11T16:57:35.126Z,2.07
2023-03-11T17:00:04.669Z,2.17
2023-03-11T17:02:32.011Z,2.03
2023-03-11T17:04:59.503Z,2.50
2023-03-11T17:07:27.241Z,1.40
2023-03-11T17:09:54.786Z,1.80
2023-03-11T17:12:23.083Z,2.40
2023-03-11T17:14:50.451Z,2.23
2023-03-11T17:17:17.969Z,1.20
2023-03-11T17:19:45.483Z,1.70
2023-03-11T17:22:13.394Z,1.00
2023-03-11T17:24:40.786Z,1.30
2023-03-11T17:27:08.131Z,1.57
2023-03-11T17:29:35.603Z,1.60
2023-03-11T17:32:03.187Z,1.20
2023-03-11T17:34:30.557Z,1.20
2023-03-11T17:36:58.075Z,1.07
2023-03-11T17:39:25.416Z,1.10
2023-03-11T17:41:52.790Z,1.57
2023-03-11T17:44:20.169Z,2.00
2023-03-11T17:46:47.539Z,1.90
2023-03-11T17:49:15.657Z,3.40
2023-03-11T17:51:43.119Z,1.73
2023-03-11T17:54:10.509Z,1.87
2023-03-11T17:56:37.844Z,1.30
2023-03-11T17:59:05.229Z,1.03
2023-03-11T18:01:32.649Z,1.43
2023-03-11T18:04:00.913Z,1.40
2023-03-11T18:06:28.673Z,1.67
2023-03-11T18:08:56.041Z,1.67
2023-03-11T18:11:25.544Z,1.10
2023-03-11T18:13:53.195Z,1.70
2023-03-11T18:16:26.140Z,2.33
2023-03-11T18:18:55.021Z,2.60
2023-03-11T18:21:27.677Z,1.23
2023-03-11T18:23:56.895Z,2.07
2023-03-11T18:26:25.628Z,1.03
2023-03-11T18:28:54.008Z,2.00
2023-03-11T18:31:23.322Z,1.50
2023-03-11T18:33:53.403Z,1.70
2023-03-11T18:36:29.480Z,1.97
2023-03-11T18:38:59.002Z,1.67
2023-03-11T18:41:27.744Z,1.73
2023-03-11T18:43:57.446Z,1.70
2023-03-11T18:46:26.271Z,1.73
2023-03-11T18:48:54.214Z,1.70
2023-03-11T18:51:21.574Z,1.60
2023-03-11T18:53:48.643Z,4.87
2023-03-11T18:56:17.280Z,6.50
2023-03-11T18:58:44.892Z,3.50
2023-03-11T19:01:15.597Z,4.77
2023-03-11T19:03:44.664Z,8.13
2023-03-11T19:06:13.568Z,5.67
2023-03-11T19:08:41.322Z,3.80
2023-03-11T19:11:10.760Z,3.03
2023-03-11T19:13:46.611Z,5.00
2023-03-11T19:16:16.703Z,3.70
2023-03-11T19:18:44.270Z,3.80
2023-03-11T19:21:13.480Z,11.10
2023-03-11T19:23:40.955Z,9.17
2023-03-11T19:26:08.643Z,8.07
2023-03-11T19:28:36.275Z,10.03
2023-03-11T19:31:05.266Z,10.70
2023-03-11T19:33:32.856Z,7.50
2023-03-11T19:36:02.166Z,8.30
2023-03-11T19:38:29.858Z,7.90
2023-03-11T19:41:06.044Z,6.93
2023-03-11T19:43:35.564Z,5.47
2023-03-11T19:46:04.011Z,4.50
2023-03-11T19:48:31.883Z,4.40
2023-03-11T19:50:59.578Z,9.30
2023-03-11T19:53:27.281Z,5.00
2023-03-11T19:55:56.242Z,4.80
2023-03-11T19:58:27.280Z,4.70
2023-03-11T20:00:56.134Z,5.87
2023-03-11T20:03:23.795Z,11.83
2023-03-11T20:05:52.897Z,9.60
2023-03-11T20:08:21.499Z,7.33
2023-03-11T20:10:50.771Z,6.40
2023-03-11T20:13:22.919Z,5.40
2023-03-11T20:15:50.806Z,6.83
2023-03-11T20:18:18.436Z,5.67
2023-03-11T20:20:46.835Z,6.60
2023-03-11T20:23:14.428Z,6.13
2023-03-11T20:25:42.582Z,6.23
2023-03-11T20:28:10.730Z,5.63
2023-03-11T20:30:39.181Z,6.00
2023-03-11T20:33:07.436Z,5.93
2023-03-11T20:35:35.129Z,6.53
2023-03-11T20:38:03.100Z,7.10
2023-03-11T20:40:30.749Z,7.37
2023-03-11T20:42:58.187Z,8.67
2023-03-11T20:45:25.651Z,6.90
2023-03-11T20:47:53.767Z,7.30
2023-03-11T20:50:22.129Z,7.97
2023-03-11T20:52:50.383Z,7.03
2023-03-11T20:55:18.101Z,6.87
2023-03-11T20:57:45.718Z,7.63
2023-03-11T21:00:13.884Z,13.30
2023-03-11T21:02:42.124Z,7.60
2023-03-11T21:05:11.047Z,7.47
2023-03-11T21:07:38.544Z,13.80
2023-03-11T21:10:10.268Z,8.17
2023-03-11T21:12:37.873Z,7.20
2023-03-11T21:15:06.557Z,9.17
2023-03-11T21:17:34.434Z,7.70
2023-03-11T21:20:01.905Z,6.27
2023-03-11T21:22:29.317Z,7.90
2023-03-11T21:24:56.892Z,10.00
2023-03-11T21:27:27.748Z,10.83
2023-03-11T21:29:56.523Z,9.50
2023-03-11T21:32:25.135Z,7.67
2023-03-11T21:34:57.403Z,7.07
2023-03-11T21:37:25.183Z,7.20
2023-03-11T21:39:52.773Z,8.47
2023-03-11T21:42:20.399Z,9.17
2023-03-11T21:44:47.935Z,8.50
2023-03-11T21:47:15.525Z,8.20
2023-03-11T21:49:42.954Z,7.17
2023-03-11T21:52:10.441Z,7.27
2023-03-11T21:54:37.878Z,8.30
2023-03-11T21:57:05.568Z,8.43
2023-03-11T21:59:33.013Z,9.10
2023-03-11T22:02:03.058Z,13.97
2023-03-11T22:04:31.575Z,11.77
2023-03-11T22:06:59.215Z,10.90
2023-03-11T22:09:26.763Z,9.10
2023-03-11T22:11:56.110Z,8.97
2023-03-11T22:14:23.758Z,12.70
2023-03-11T22:16:51.519Z,10.00
2023-03-11T22:19:18.918Z,9.03
2023-03-11T22:21:48.253Z,10.13
2023-03-11T22:24:16.141Z,9.80
2023-03-11T22:26:43.667Z,8.70
2023-03-11T22:29:13.456Z,9.20
2023-03-11T22:31:41.139Z,7.47
2023-03-11T22:34:08.532Z,7.87
2023-03-11T22:36:35.897Z,7.17
2023-03-11T22:39:04.357Z,5.90
2023-03-11T22:41:31.988Z,6.90
2023-03-11T22:43:59.442Z,6.00
2023-03-11T22:46:27.104Z,6.80
2023-03-11T22:48:54.510Z,5.97
2023-03-11T22:51:21.967Z,6.30
2023-03-11T22:53:49.469Z,7.40
2023-03-11T22:56:17.651Z,6.40
2023-03-11T22:58:45.464Z,8.63
2023-03-11T23:01:13.016Z,13.77
2023-03-11T23:03:40.502Z,11.37
2023-03-11T23:06:11.060Z,11.40
2023-03-11T23:08:38.807Z,10.70
2023-03-11T23:11:09.499Z,10.07
2023-03-11T23:13:37.281Z,10.47
2023-03-11T23:16:07.378Z,10.13
2023-03-11T23:18:35.288Z,10.33
2023-03-11T23:21:02.636Z,9.10
2023-03-11T23:23:30.082Z,10.93
2023-03-11T23:25:57.460Z,11.87
2023-03-11T23:28:24.821Z,13.70
2023-03-11T23:30:52.309Z,12.40
2023-03-11T23:33:19.709Z,14.17
2023-03-11T23:35:47.062Z,13.33
2023-03-11T23:38:14.401Z,13.70
2023-03-11T23:40:41.946Z,12.67
2023-03-11T23:43:09.308Z,12.50
2023-03-11T23:45:36.639Z,13.00
2023-03-11T23:48:04.039Z,12.23
2023-03-11T23:50:31.379Z,10.10
2023-03-11T23:52:58.676Z,11.10
2023-03-11T23:55:26.455Z,11.57
2023-03-11T23:57:53.893Z,10.67
